Time;durP1;ratioP1;P1;durP2;ratioP2;P2;SDS_P1;SDS_P2;PMS_P1;PMS_P2;Temp;Humidity;BMP_temperature;BMP_pressure;BME280_temperature;BME280_humidity;BME280_pressure;Samples;Min_cycle;Max_cycle;Signal;HPM_P1;HPM_P2
2021/12/14 00:00:31;;;;;;;0.80;0.80;;;;;;;;;;5055030;28;20194;-96
2021/12/14 00:03:00;;;;;;;0.97;0.97;;;;;;;;;;5054860;28;20186;-96
2021/12/14 00:05:29;;;;;;;1.00;1.00;;;;;;;;;;5054878;28;20739;-96
2021/12/14 00:07:57;;;;;;;0.80;0.80;;;;;;;;;;5054963;28;20229;-96
2021/12/14 00:10:45;;;;;;;1.03;1.03;;;;;;;;;;5054673;28;20202;-96
2021/12/14 00:13:21;;;;;;;0.90;0.90;;;;;;;;;;5054692;28;20276;-95
2021/12/14 00:15:49;;;;;;;0.83;0.83;;;;;;;;;;5054710;28;20292;-95
2021/12/14 00:18:17;;;;;;;0.70;0.70;;;;;;;;;;5054693;28;20308;-94
2021/12/14 00:20:48;;;;;;;0.90;0.90;;;;;;;;;;5054680;28;20662;-95
2021/12/14 00:26:13;;;;;;;0.80;0.80;;;;;;;;;;5011848;28;20682;-95
2021/12/14 00:28:40;;;;;;;0.90;0.90;;;;;;;;;;5054227;28;20194;-96
2021/12/14 00:31:10;;;;;;;1.00;1.00;;;;;;;;;;5054358;28;20194;-95
2021/12/14 00:33:40;;;;;;;0.80;0.80;;;;;;;;;;5054202;28;20281;-95
2021/12/14 00:36:09;;;;;;;0.80;0.80;;;;;;;;;;5054448;28;20201;-95
2021/12/14 00:38:38;;;;;;;0.90;0.90;;;;;;;;;;5054010;28;20218;-95
2021/12/14 00:41:08;;;;;;;0.80;0.80;;;;;;;;;;5054252;28;20198;-96
2021/12/14 00:43:37;;;;;;;0.87;0.87;;;;;;;;;;5038127;28;20714;-95
2021/12/14 00:46:05;;;;;;;1.20;1.10;;;;;;;;;;5034220;28;20226;-95
2021/12/14 00:48:33;;;;;;;0.90;0.90;;;;;;;;;;5034644;28;20199;-95
2021/12/14 00:51:21;;;;;;;0.83;0.83;;;;;;;;;;5111529;27;20550;-96
2021/12/14 00:53:48;;;;;;;0.60;0.60;;;;;;;;;;5110856;28;20228;-95
2021/12/14 00:56:16;;;;;;;0.90;0.90;;;;;;;;;;5110942;28;20223;-96
2021/12/14 00:58:43;;;;;;;0.80;0.80;;;;;;;;;;5111049;28;20207;-95
2021/12/14 01:01:13;;;;;;;0.90;0.90;;;;;;;;;;5111050;28;20192;-96
2021/12/14 01:03:45;;;;;;;0.80;0.80;;;;;;;;;;5111425;28;20242;-95
2021/12/14 01:06:12;;;;;;;1.00;1.00;;;;;;;;;;5111019;28;20619;-96
2021/12/14 01:08:43;;;;;;;1.10;1.10;;;;;;;;;;5110709;28;20195;-96
2021/12/14 01:11:15;;;;;;;1.10;1.10;;;;;;;;;;5110256;28;20294;-96
2021/12/14 01:13:50;;;;;;;1.10;1.10;;;;;;;;;;5110764;28;20610;-96
2021/12/14 01:16:31;;;;;;;0.90;0.90;;;;;;;;;;5110788;28;20550;-96
2021/12/14 01:19:12;;;;;;;0.80;0.80;;;;;;;;;;5110638;28;20260;-96
2021/12/14 01:21:58;;;;;;;1.07;1.00;;;;;;;;;;5110358;28;20184;-96
2021/12/14 01:24:53;;;;;;;1.27;1.10;;;;;;;;;;5110249;28;20188;-96
2021/12/14 01:27:25;;;;;;;1.00;1.00;;;;;;;;;;5110342;28;20188;-96
2021/12/14 01:29:54;;;;;;;1.30;1.20;;;;;;;;;;5110406;28;20204;-96
2021/12/14 01:32:24;;;;;;;0.90;0.90;;;;;;;;;;5110122;28;20192;-96
2021/12/14 01:34:51;;;;;;;1.40;1.30;;;;;;;;;;5110198;28;20282;-96
2021/12/14 01:37:24;;;;;;;0.80;0.80;;;;;;;;;;5110081;28;20249;-96
2021/12/14 01:40:04;;;;;;;1.07;1.07;;;;;;;;;;5109997;28;20252;-95
2021/12/14 01:42:34;;;;;;;1.47;1.37;;;;;;;;;;5109876;28;20191;-95
2021/12/14 01:45:05;;;;;;;0.90;0.90;;;;;;;;;;5109793;28;20196;-96
2021/12/14 01:47:36;;;;;;;1.00;1.00;;;;;;;;;;5109956;28;20340;-96
2021/12/14 01:50:06;;;;;;;0.87;0.87;;;;;;;;;;5109612;28;20289;-94
2021/12/14 01:52:35;;;;;;;1.30;1.20;;;;;;;;;;5109761;28;20274;-96
2021/12/14 01:55:08;;;;;;;1.37;1.27;;;;;;;;;;5109802;28;20253;-96
2021/12/14 01:57:36;;;;;;;1.20;1.10;;;;;;;;;;5109887;28;20287;-96
2021/12/14 02:00:06;;;;;;;0.90;0.90;;;;;;;;;;5109789;28;20245;-95
2021/12/14 02:02:41;;;;;;;1.30;1.20;;;;;;;;;;5096294;28;20180;-96
2021/12/14 02:05:15;;;;;;;1.10;1.00;;;;;;;;;;5096204;28;20218;-96
2021/12/14 02:07:43;;;;;;;0.90;0.90;;;;;;;;;;5095909;28;20191;-95
2021/12/14 02:10:18;;;;;;;1.00;1.00;;;;;;;;;;5095745;28;20282;-96
2021/12/14 02:12:46;;;;;;;1.10;1.00;;;;;;;;;;5096232;28;20188;-96
2021/12/14 02:15:16;;;;;;;0.83;0.83;;;;;;;;;;5095731;28;20224;-95
2021/12/14 02:17:44;;;;;;;1.00;1.00;;;;;;;;;;5096082;28;20235;-96
2021/12/14 02:20:13;;;;;;;0.77;0.77;;;;;;;;;;5095681;28;20211;-95
2021/12/14 02:22:42;;;;;;;0.83;0.83;;;;;;;;;;5095829;28;20201;-96
2021/12/14 02:25:12;;;;;;;1.03;1.03;;;;;;;;;;5095798;28;20613;-96
2021/12/14 02:27:42;;;;;;;0.90;0.90;;;;;;;;;;5095557;28;20227;-95
2021/12/14 02:30:13;;;;;;;0.80;0.80;;;;;;;;;;5095470;28;20603;-94
2021/12/14 02:32:41;;;;;;;1.13;1.10;;;;;;;;;;5095546;28;20188;-94
2021/12/14 02:35:11;;;;;;;1.00;1.00;;;;;;;;;;5095654;28;20196;-95
2021/12/14 02:37:43;;;;;;;0.90;0.90;;;;;;;;;;5095487;28;20218;-95
2021/12/14 02:40:20;;;;;;;0.93;0.93;;;;;;;;;;5095359;28;20188;-95
2021/12/14 02:42:49;;;;;;;0.90;0.90;;;;;;;;;;5094789;28;20192;-93
2021/12/14 02:45:18;;;;;;;0.87;0.87;;;;;;;;;;5087986;28;20200;-91
2021/12/14 02:47:46;;;;;;;0.90;0.90;;;;;;;;;;5095389;28;20203;-92
2021/12/14 02:50:13;;;;;;;0.77;0.77;;;;;;;;;;5094996;28;20259;-93
2021/12/14 02:52:42;;;;;;;0.80;0.80;;;;;;;;;;5094889;28;20224;-93
2021/12/14 02:55:12;;;;;;;0.70;0.70;;;;;;;;;;5095093;28;20961;-93
2021/12/14 02:57:42;;;;;;;0.60;0.60;;;;;;;;;;5095697;28;20683;-91
2021/12/14 03:00:13;;;;;;;1.37;0.90;;;;;;;;;;5094720;28;20282;-92
2021/12/14 03:02:41;;;;;;;1.00;1.00;;;;;;;;;;5095107;28;20189;-91
2021/12/14 03:05:12;;;;;;;0.80;0.80;;;;;;;;;;5094651;28;20203;-91
2021/12/14 03:07:43;;;;;;;0.80;0.80;;;;;;;;;;5094677;28;20189;-93
2021/12/14 03:10:33;;;;;;;0.80;0.80;;;;;;;;;;5094786;28;20204;-92
2021/12/14 03:13:03;;;;;;;0.80;0.80;;;;;;;;;;5093634;28;20184;-93
2021/12/14 03:15:33;;;;;;;0.80;0.80;;;;;;;;;;5095175;28;20558;-93
2021/12/14 03:18:03;;;;;;;0.97;0.97;;;;;;;;;;5094557;28;20275;-94
2021/12/14 03:20:33;;;;;;;0.80;0.80;;;;;;;;;;5094903;28;20280;-93
2021/12/14 03:23:05;;;;;;;0.70;0.70;;;;;;;;;;5094354;28;20551;-93
2021/12/14 03:25:39;;;;;;;0.80;0.80;;;;;;;;;;5094702;28;20592;-93
2021/12/14 03:28:07;;;;;;;0.60;0.60;;;;;;;;;;5094314;28;20188;-93
2021/12/14 03:30:38;;;;;;;0.70;0.70;;;;;;;;;;5094376;28;20646;-94
2021/12/14 03:33:07;;;;;;;0.60;0.60;;;;;;;;;;5094206;28;20238;-93
2021/12/14 03:35:42;;;;;;;0.90;0.90;;;;;;;;;;5094479;28;20197;-93
2021/12/14 03:38:14;;;;;;;0.80;0.80;;;;;;;;;;5094027;28;20180;-94
2021/12/14 03:40:42;;;;;;;0.73;0.73;;;;;;;;;;5094385;28;20257;-93
2021/12/14 03:43:09;;;;;;;0.83;0.83;;;;;;;;;;5094409;28;20200;-92
2021/12/14 03:45:37;;;;;;;2.33;1.43;;;;;;;;;;5094126;28;20214;-94
2021/12/14 03:48:05;;;;;;;0.70;0.70;;;;;;;;;;5074102;28;20196;-92
2021/12/14 03:50:35;;;;;;;1.10;1.00;;;;;;;;;;5073247;28;20235;-92
2021/12/14 03:53:03;;;;;;;0.70;0.70;;;;;;;;;;5073456;28;20228;-92
2021/12/14 03:55:35;;;;;;;0.80;0.80;;;;;;;;;;5073635;28;20231;-92
2021/12/14 03:58:03;;;;;;;0.67;0.67;;;;;;;;;;5073821;28;20376;-92
2021/12/14 04:00:33;;;;;;;0.80;0.80;;;;;;;;;;5078400;28;20189;-92
2021/12/14 04:03:05;;;;;;;0.73;0.73;;;;;;;;;;5077878;28;20200;-92
2021/12/14 04:05:34;;;;;;;0.80;0.80;;;;;;;;;;5073779;28;20661;-93
2021/12/14 04:08:01;;;;;;;1.17;0.70;;;;;;;;;;5073926;28;20201;-92
2021/12/14 04:10:33;;;;;;;0.67;0.67;;;;;;;;;;5073498;28;20225;-93
2021/12/14 04:13:01;;;;;;;0.80;0.80;;;;;;;;;;5073330;28;20189;-93
2021/12/14 04:15:29;;;;;;;0.60;0.60;;;;;;;;;;5073150;28;20223;-92
2021/12/14 04:17:57;;;;;;;0.80;0.80;;;;;;;;;;5073173;28;20197;-93
2021/12/14 04:20:28;;;;;;;0.73;0.73;;;;;;;;;;5073394;28;20221;-93
2021/12/14 04:22:56;;;;;;;1.10;1.00;;;;;;;;;;5073384;28;20604;-94
2021/12/14 04:25:28;;;;;;;0.83;0.80;;;;;;;;;;5078936;28;20317;-93
2021/12/14 04:27:58;;;;;;;0.60;0.60;;;;;;;;;;5093198;28;20192;-93
2021/12/14 04:30:28;;;;;;;0.70;0.70;;;;;;;;;;5093468;28;20216;-92
2021/12/14 04:32:57;;;;;;;0.70;0.70;;;;;;;;;;5093126;28;20196;-94
2021/12/14 04:35:25;;;;;;;0.80;0.80;;;;;;;;;;5093626;28;20200;-93
2021/12/14 04:37:55;;;;;;;0.80;0.80;;;;;;;;;;5093673;28;20578;-90
2021/12/14 04:51:53;;;;;;;0.87;0.87;;;;;;;;;;5093857;28;20576;-92
2021/12/14 04:54:17;;;;;;;0.80;0.80;;;;;;;;;;5093048;28;20314;-94
2021/12/14 04:56:46;;;;;;;0.90;0.90;;;;;;;;;;5092914;28;20197;-93
2021/12/14 04:59:19;;;;;;;1.00;1.00;;;;;;;;;;5092675;28;20196;-92
2021/12/14 05:01:48;;;;;;;1.90;0.70;;;;;;;;;;5093027;28;20188;-93
2021/12/14 05:04:18;;;;;;;0.63;0.63;;;;;;;;;;5093020;28;20200;-93
2021/12/14 05:06:48;;;;;;;0.60;0.60;;;;;;;;;;5093201;28;20192;-94
2021/12/14 05:09:21;;;;;;;0.90;0.90;;;;;;;;;;5092751;28;20279;-93
2021/12/14 05:11:48;;;;;;;0.73;0.73;;;;;;;;;;5092524;28;20211;-93
2021/12/14 05:14:17;;;;;;;0.70;0.70;;;;;;;;;;5092823;28;20188;-93
2021/12/14 05:16:45;;;;;;;0.80;0.80;;;;;;;;;;5093007;28;20668;-94
2021/12/14 05:19:13;;;;;;;0.80;0.80;;;;;;;;;;5092683;28;20188;-94
2021/12/14 05:21:43;;;;;;;0.73;0.73;;;;;;;;;;5092738;28;20283;-95
2021/12/14 05:24:13;;;;;;;0.80;0.80;;;;;;;;;;5092323;28;20279;-95
2021/12/14 05:26:41;;;;;;;1.57;0.90;;;;;;;;;;5092904;28;20631;-95
2021/12/14 05:29:10;;;;;;;0.80;0.77;;;;;;;;;;5092709;28;20246;-93
2021/12/14 05:31:44;;;;;;;0.80;0.80;;;;;;;;;;5092641;28;20244;-94
2021/12/14 05:34:12;;;;;;;0.60;0.60;;;;;;;;;;5092819;28;20643;-94
2021/12/14 05:36:42;;;;;;;0.77;0.77;;;;;;;;;;5093924;28;20266;-94
2021/12/14 05:39:25;;;;;;;0.63;0.63;;;;;;;;;;5076907;28;20255;-95
2021/12/14 05:44:40;;;;;;;0.93;0.90;;;;;;;;;;5081171;28;20272;-95
2021/12/14 05:47:12;;;;;;;0.83;0.83;;;;;;;;;;5096166;28;20196;-94
2021/12/14 05:49:42;;;;;;;0.90;0.90;;;;;;;;;;5096405;28;20228;-95
2021/12/14 05:52:12;;;;;;;0.57;0.57;;;;;;;;;;5096455;28;20360;-95
2021/12/14 05:54:39;;;;;;;0.80;0.80;;;;;;;;;;5096195;28;20292;-95
2021/12/14 05:57:09;;;;;;;0.80;0.80;;;;;;;;;;5096249;28;20264;-94
2021/12/14 05:59:37;;;;;;;0.90;0.70;;;;;;;;;;5096472;28;20220;-94
2021/12/14 06:02:07;;;;;;;0.67;0.67;;;;;;;;;;5096406;28;20250;-95
2021/12/14 06:04:38;;;;;;;0.60;0.60;;;;;;;;;;5095939;28;20191;-95
2021/12/14 06:07:10;;;;;;;0.50;0.50;;;;;;;;;;5096094;28;20180;-94
2021/12/14 06:09:40;;;;;;;0.70;0.70;;;;;;;;;;5096007;28;20224;-95
2021/12/14 06:12:11;;;;;;;0.73;0.73;;;;;;;;;;5095611;28;20382;-95
2021/12/14 06:14:43;;;;;;;0.60;0.60;;;;;;;;;;5095724;28;20180;-94
2021/12/14 06:17:12;;;;;;;0.50;0.50;;;;;;;;;;5095900;28;20199;-94
2021/12/14 06:19:42;;;;;;;0.73;0.70;;;;;;;;;;5095902;28;20189;-94
2021/12/14 06:22:13;;;;;;;0.73;0.73;;;;;;;;;;5096054;28;20646;-95
2021/12/14 06:24:43;;;;;;;0.50;0.50;;;;;;;;;;5095779;28;20658;-94
2021/12/14 06:27:12;;;;;;;0.60;0.60;;;;;;;;;;5095508;28;20751;-94
2021/12/14 06:29:42;;;;;;;0.73;0.73;;;;;;;;;;5095570;28;20681;-94
2021/12/14 06:32:11;;;;;;;1.30;1.20;;;;;;;;;;5095412;28;20224;-96
2021/12/14 06:34:44;;;;;;;1.23;1.23;;;;;;;;;;5095479;28;20192;-95
2021/12/14 06:38:05;;;;;;;0.90;0.90;;;;;;;;;;5095475;28;20226;-94
2021/12/14 06:40:34;;;;;;;0.70;0.70;;;;;;;;;;5095767;28;20200;-95
2021/12/14 06:43:05;;;;;;;0.90;0.90;;;;;;;;;;5095370;28;20258;-94
2021/12/14 06:45:36;;;;;;;0.50;0.50;;;;;;;;;;5095180;28;20234;-94
2021/12/14 06:48:06;;;;;;;0.50;0.50;;;;;;;;;;5095146;28;20184;-94
2021/12/14 06:50:40;;;;;;;0.80;0.80;;;;;;;;;;5094985;28;20263;-94
2021/12/14 06:53:15;;;;;;;0.90;0.87;;;;;;;;;;5095186;28;20189;-94
2021/12/14 06:55:43;;;;;;;1.30;0.70;;;;;;;;;;5095415;28;20192;-94
2021/12/14 06:58:16;;;;;;;0.80;0.80;;;;;;;;;;5095611;28;20200;-94
2021/12/14 07:00:46;;;;;;;0.70;0.70;;;;;;;;;;5095080;28;20212;-94
2021/12/14 07:03:14;;;;;;;4.87;3.80;;;;;;;;;;5095231;28;20176;-94
2021/12/14 07:05:45;;;;;;;5.77;4.10;;;;;;;;;;5094733;28;20238;-94
2021/12/14 07:08:16;;;;;;;44.40;26.20;;;;;;;;;;5095041;28;20216;-95
2021/12/14 07:10:45;;;;;;;21.93;16.00;;;;;;;;;;5094516;28;20185;-95
2021/12/14 07:13:19;;;;;;;14.27;11.23;;;;;;;;;;5094916;28;20627;-94
2021/12/14 07:15:47;;;;;;;3.47;3.17;;;;;;;;;;5094827;28;20172;-95
2021/12/14 07:18:15;;;;;;;1.70;1.60;;;;;;;;;;5094702;28;20207;-94
2021/12/14 07:20:46;;;;;;;1.00;1.00;;;;;;;;;;5094597;28;20192;-94
2021/12/14 07:23:23;;;;;;;1.50;1.40;;;;;;;;;;5094834;28;20180;-94
2021/12/14 07:25:54;;;;;;;2.90;2.60;;;;;;;;;;5094720;28;20192;-94
2021/12/14 07:28:21;;;;;;;3.70;3.33;;;;;;;;;;5094673;28;20265;-95
2021/12/14 07:30:51;;;;;;;1.43;1.33;;;;;;;;;;5094184;28;20253;-94
2021/12/14 07:33:21;;;;;;;1.53;1.43;;;;;;;;;;5094236;28;20722;-95
2021/12/14 07:35:54;;;;;;;0.97;0.97;;;;;;;;;;5093719;28;20180;-94
2021/12/14 07:38:37;;;;;;;1.37;1.10;;;;;;;;;;5094297;28;20257;-95
2021/12/14 07:41:21;;;;;;;1.07;1.00;;;;;;;;;;5094222;28;20195;-95
2021/12/14 07:43:52;;;;;;;2.87;1.00;;;;;;;;;;5094364;28;20221;-94
2021/12/14 07:46:25;;;;;;;1.83;1.73;;;;;;;;;;5094400;28;20538;-95
2021/12/14 07:48:54;;;;;;;2.60;2.40;;;;;;;;;;5093854;28;20712;-94
2021/12/14 07:51:24;;;;;;;1.50;1.40;;;;;;;;;;5094033;28;20257;-94
2021/12/14 07:53:54;;;;;;;1.63;1.53;;;;;;;;;;5093872;28;20200;-94
2021/12/14 07:56:33;;;;;;;0.80;0.80;;;;;;;;;;5093773;28;20253;-94
2021/12/14 07:59:01;;;;;;;1.00;1.00;;;;;;;;;;5093339;28;20245;-94
2021/12/14 08:01:29;;;;;;;1.00;0.90;;;;;;;;;;5094129;28;20596;-96
2021/12/14 08:04:05;;;;;;;0.63;0.63;;;;;;;;;;5093823;28;20193;-94
2021/12/14 08:06:51;;;;;;;0.80;0.80;;;;;;;;;;5093736;28;20245;-95
2021/12/14 08:09:33;;;;;;;0.80;0.80;;;;;;;;;;5093896;28;20195;-95
2021/12/14 08:12:01;;;;;;;0.80;0.80;;;;;;;;;;5093631;28;20737;-94
2021/12/14 08:14:33;;;;;;;1.90;1.80;;;;;;;;;;5093669;28;20225;-94
2021/12/14 08:17:03;;;;;;;4.07;3.43;;;;;;;;;;5093761;28;20263;-95
2021/12/14 08:19:35;;;;;;;4.10;3.30;;;;;;;;;;5093791;28;20202;-94
2021/12/14 08:22:08;;;;;;;3.50;3.20;;;;;;;;;;5093440;28;20184;-95
2021/12/14 08:24:36;;;;;;;2.80;2.60;;;;;;;;;;5093797;28;20200;-95
2021/12/14 08:27:06;;;;;;;2.07;1.60;;;;;;;;;;5093298;28;20223;-95
2021/12/14 08:29:35;;;;;;;1.70;1.60;;;;;;;;;;5094024;28;20637;-94
2021/12/14 08:32:07;;;;;;;1.87;1.70;;;;;;;;;;5093160;28;20231;-94
2021/12/14 08:34:41;;;;;;;1.67;1.57;;;;;;;;;;5093376;28;20221;-95
2021/12/14 08:37:15;;;;;;;2.47;2.27;;;;;;;;;;5093835;28;20260;-95
2021/12/14 08:39:46;;;;;;;1.50;1.40;;;;;;;;;;5093552;28;20651;-95
2021/12/14 08:42:18;;;;;;;0.90;0.90;;;;;;;;;;5093444;28;20215;-94
2021/12/14 08:44:52;;;;;;;1.70;1.60;;;;;;;;;;5093517;28;20641;-95
2021/12/14 08:47:28;;;;;;;1.40;1.30;;;;;;;;;;5093443;28;20583;-95
2021/12/14 08:49:56;;;;;;;3.93;2.30;;;;;;;;;;5092794;28;20236;-94
2021/12/14 08:52:26;;;;;;;1.63;1.53;;;;;;;;;;5093061;28;20219;-95
2021/12/14 08:54:54;;;;;;;1.20;1.20;;;;;;;;;;5092942;28;20281;-94
2021/12/14 08:57:24;;;;;;;1.30;1.20;;;;;;;;;;5093109;28;20188;-95
2021/12/14 08:59:55;;;;;;;1.30;1.20;;;;;;;;;;5093526;28;20196;-95
2021/12/14 09:02:23;;;;;;;1.00;1.00;;;;;;;;;;5093236;28;20188;-94
2021/12/14 09:04:53;;;;;;;1.30;1.20;;;;;;;;;;5093040;28;20192;-94
2021/12/14 09:07:23;;;;;;;1.00;1.00;;;;;;;;;;5092862;28;20228;-94
2021/12/14 09:09:53;;;;;;;1.30;1.30;;;;;;;;;;5093070;28;20224;-93
2021/12/14 09:12:24;;;;;;;2.80;2.60;;;;;;;;;;5095841;28;20283;-95
2021/12/14 09:14:53;;;;;;;1.03;1.03;;;;;;;;;;5096841;28;20188;-94
2021/12/14 09:17:22;;;;;;;1.40;1.30;;;;;;;;;;5096859;28;20639;-94
2021/12/14 09:19:53;;;;;;;0.97;0.97;;;;;;;;;;5096958;28;20195;-94
2021/12/14 09:22:23;;;;;;;1.13;1.13;;;;;;;;;;5097124;28;20184;-95
2021/12/14 09:24:53;;;;;;;0.70;0.70;;;;;;;;;;5096804;28;20192;-95
2021/12/14 09:27:24;;;;;;;1.67;1.57;;;;;;;;;;5096870;28;20284;-94
2021/12/14 09:29:52;;;;;;;0.87;0.87;;;;;;;;;;5097005;28;20214;-94
2021/12/14 09:32:25;;;;;;;1.60;1.50;;;;;;;;;;5096589;28;20273;-94
2021/12/14 09:34:53;;;;;;;1.77;1.67;;;;;;;;;;5096632;28;20196;-94
2021/12/14 09:37:20;;;;;;;1.70;1.60;;;;;;;;;;5096679;28;20200;-94
2021/12/14 09:39:53;;;;;;;2.27;1.97;;;;;;;;;;5096462;28;20242;-95
2021/12/14 09:42:25;;;;;;;3.03;1.50;;;;;;;;;;5096774;28;20596;-94
2021/12/14 09:44:54;;;;;;;1.50;1.10;;;;;;;;;;5096915;28;20187;-94
2021/12/14 09:47:25;;;;;;;2.10;1.43;;;;;;;;;;5096463;28;20208;-95
2021/12/14 09:49:53;;;;;;;1.10;1.10;;;;;;;;;;5096093;28;20406;-94
2021/12/14 09:52:23;;;;;;;1.57;1.47;;;;;;;;;;5096136;28;20224;-94
2021/12/14 09:54:54;;;;;;;1.90;1.20;;;;;;;;;;5096804;28;20284;-95
2021/12/14 09:57:25;;;;;;;0.90;0.90;;;;;;;;;;5096213;28;20641;-94
2021/12/14 09:59:55;;;;;;;0.93;0.93;;;;;;;;;;5096130;28;20220;-94
2021/12/14 10:02:24;;;;;;;0.87;0.80;;;;;;;;;;5096363;28;20576;-95
2021/12/14 10:04:56;;;;;;;1.03;1.03;;;;;;;;;;5096238;28;20239;-94
2021/12/14 10:07:24;;;;;;;1.20;1.20;;;;;;;;;;5095990;28;20188;-94
2021/12/14 10:09:56;;;;;;;1.03;1.00;;;;;;;;;;5095785;28;20199;-94
2021/12/14 10:15:17;;;;;;;1.30;1.20;;;;;;;;;;5088868;28;20578;-94
2021/12/14 10:17:45;;;;;;;0.80;0.80;;;;;;;;;;5095761;28;20188;-94
2021/12/14 10:20:22;;;;;;;1.57;1.43;;;;;;;;;;5095821;28;20196;-94
2021/12/14 10:22:51;;;;;;;0.90;0.90;;;;;;;;;;5095343;28;20208;-95
2021/12/14 10:25:22;;;;;;;1.70;1.60;;;;;;;;;;5095681;28;20271;-93
2021/12/14 10:27:50;;;;;;;1.90;1.80;;;;;;;;;;5095871;28;20716;-95
2021/12/14 10:30:21;;;;;;;1.77;1.67;;;;;;;;;;5095364;28;20203;-94
2021/12/14 10:32:48;;;;;;;1.50;1.40;;;;;;;;;;5095378;28;20257;-95
2021/12/14 10:35:21;;;;;;;1.60;1.23;;;;;;;;;;5095568;28;20196;-94
2021/12/14 10:37:56;;;;;;;1.30;1.20;;;;;;;;;;5095384;28;20192;-95
2021/12/14 10:43:16;;;;;;;1.40;1.30;;;;;;;;;;5095623;28;20175;-94
2021/12/14 10:45:49;;;;;;;1.17;1.03;;;;;;;;;;5095513;28;20210;-94
2021/12/14 10:48:17;;;;;;;0.70;0.70;;;;;;;;;;5095417;28;20185;-95
2021/12/14 10:50:48;;;;;;;2.27;1.17;;;;;;;;;;5094915;28;20281;-94
2021/12/14 10:53:15;;;;;;;1.90;1.80;;;;;;;;;;5094995;28;20201;-94
2021/12/14 10:55:47;;;;;;;1.20;1.20;;;;;;;;;;5095229;28;20224;-94
2021/12/14 10:58:18;;;;;;;1.97;1.73;;;;;;;;;;5095315;28;20191;-93
2021/12/14 11:00:48;;;;;;;0.93;0.93;;;;;;;;;;5095309;28;20188;-93
2021/12/14 11:03:18;;;;;;;1.00;1.00;;;;;;;;;;5094795;28;20181;-94
2021/12/14 11:05:51;;;;;;;1.00;1.00;;;;;;;;;;5094845;28;20223;-94
2021/12/14 11:08:36;;;;;;;0.90;0.90;;;;;;;;;;5095025;28;20698;-94
2021/12/14 11:11:11;;;;;;;3.37;1.20;;;;;;;;;;5095082;28;20188;-96
2021/12/14 11:13:41;;;;;;;1.20;1.10;;;;;;;;;;5095049;28;20257;-94
2021/12/14 11:16:15;;;;;;;1.00;1.00;;;;;;;;;;5094564;28;20214;-95
2021/12/14 11:18:44;;;;;;;0.80;0.80;;;;;;;;;;5095316;28;20574;-94
2021/12/14 11:21:14;;;;;;;0.93;0.93;;;;;;;;;;5094643;28;20185;-94
2021/12/14 11:23:44;;;;;;;1.00;0.90;;;;;;;;;;5094532;28;20200;-94
2021/12/14 11:26:15;;;;;;;0.80;0.80;;;;;;;;;;5094631;28;20247;-94
2021/12/14 11:28:45;;;;;;;1.33;1.13;;;;;;;;;;5094391;28;20215;-94
2021/12/14 11:31:14;;;;;;;1.00;1.00;;;;;;;;;;5094269;28;20193;-94
2021/12/14 11:33:45;;;;;;;0.83;0.83;;;;;;;;;;5093381;28;20220;-94
2021/12/14 11:36:15;;;;;;;0.90;0.90;;;;;;;;;;5094223;28;20192;-94
2021/12/14 11:38:45;;;;;;;0.80;0.80;;;;;;;;;;5094637;28;20200;-95
2021/12/14 11:41:37;;;;;;;0.80;0.80;;;;;;;;;;5094226;28;20228;-94
2021/12/14 11:44:09;;;;;;;1.03;0.97;;;;;;;;;;5094401;28;20177;-94
2021/12/14 11:47:02;;;;;;;0.77;0.77;;;;;;;;;;5094333;28;20648;-94
2021/12/14 11:49:44;;;;;;;0.93;0.90;;;;;;;;;;5090903;28;20614;-94
2021/12/14 11:52:12;;;;;;;1.10;1.10;;;;;;;;;;5093961;28;20710;-94
2021/12/14 11:54:44;;;;;;;1.60;1.50;;;;;;;;;;5093852;28;20188;-93
2021/12/14 11:57:14;;;;;;;0.90;0.90;;;;;;;;;;5094022;28;20645;-93
2021/12/14 11:59:41;;;;;;;0.70;0.70;;;;;;;;;;5093762;28;20752;-93
2021/12/14 12:02:09;;;;;;;2.47;1.43;;;;;;;;;;5093659;28;20235;-94
2021/12/14 12:04:42;;;;;;;1.30;1.20;;;;;;;;;;5094281;28;20203;-95
2021/12/14 12:09:59;;;;;;;1.60;1.50;;;;;;;;;;5093768;28;20621;-94
2021/12/14 12:12:30;;;;;;;1.30;1.20;;;;;;;;;;5093692;28;20203;-93
2021/12/14 12:15:00;;;;;;;1.23;1.13;;;;;;;;;;5093611;28;20271;-94
2021/12/14 12:17:32;;;;;;;1.20;1.10;;;;;;;;;;5093536;28;20246;-94
2021/12/14 12:20:11;;;;;;;1.30;1.20;;;;;;;;;;5093501;28;20726;-94
2021/12/14 12:22:40;;;;;;;0.90;0.90;;;;;;;;;;5093372;28;20641;-94
2021/12/14 12:25:08;;;;;;;1.00;1.00;;;;;;;;;;5093251;28;20192;-92
2021/12/14 12:27:45;;;;;;;0.90;0.90;;;;;;;;;;5093262;28;20196;-94
2021/12/14 12:30:32;;;;;;;4.93;3.77;;;;;;;;;;5094210;28;20202;-94
2021/12/14 12:33:04;;;;;;;1.77;1.60;;;;;;;;;;5093480;28;20204;-94
2021/12/14 12:35:35;;;;;;;1.40;1.07;;;;;;;;;;5093513;28;20622;-93
2021/12/14 12:38:19;;;;;;;0.70;0.70;;;;;;;;;;5093229;28;20185;-93
2021/12/14 12:40:50;;;;;;;1.50;1.27;;;;;;;;;;5093085;28;20184;-94
2021/12/14 12:43:23;;;;;;;0.77;0.77;;;;;;;;;;5093105;28;20176;-94
2021/12/14 12:46:07;;;;;;;1.40;1.30;;;;;;;;;;5093147;28;20206;-94
2021/12/14 12:49:09;;;;;;;1.00;1.00;;;;;;;;;;5093044;28;20631;-93
2021/12/14 12:51:46;;;;;;;1.10;1.10;;;;;;;;;;5031274;28;20182;-93
2021/12/14 12:54:25;;;;;;;3.97;3.23;;;;;;;;;;5031190;28;20297;-94
2021/12/14 12:57:33;;;;;;;1.30;1.20;;;;;;;;;;5031646;28;20194;-94
2021/12/14 13:00:27;;;;;;;0.90;0.90;;;;;;;;;;5027153;28;20577;-94
2021/12/14 13:02:59;;;;;;;20.03;12.80;;;;;;;;;;5031221;28;20240;-94
2021/12/14 13:05:31;;;;;;;4.87;3.83;;;;;;;;;;5030891;28;20187;-93
2021/12/14 13:08:05;;;;;;;3.13;2.83;;;;;;;;;;5030955;28;20296;-93
2021/12/14 13:10:35;;;;;;;1.70;1.60;;;;;;;;;;5031169;28;20229;-94
2021/12/14 13:13:10;;;;;;;1.63;1.53;;;;;;;;;;5030880;28;20733;-93
2021/12/14 13:16:06;;;;;;;1.70;1.60;;;;;;;;;;5031097;28;20209;-95
2021/12/14 13:18:42;;;;;;;1.30;1.20;;;;;;;;;;5031122;28;20191;-94
2021/12/14 13:21:23;;;;;;;0.90;0.90;;;;;;;;;;5031227;28;20689;-94
2021/12/14 13:24:13;;;;;;;1.00;1.00;;;;;;;;;;5092945;28;20191;-92
2021/12/14 13:26:47;;;;;;;1.50;1.40;;;;;;;;;;5093035;28;20180;-93
2021/12/14 13:29:44;;;;;;;1.50;1.40;;;;;;;;;;5092861;28;20203;-94
2021/12/14 13:32:17;;;;;;;1.27;1.20;;;;;;;;;;5092890;28;20193;-94
2021/12/14 13:34:49;;;;;;;1.20;1.00;;;;;;;;;;5092695;28;20204;-94
2021/12/14 13:37:21;;;;;;;0.80;0.80;;;;;;;;;;5092526;28;20189;-93
2021/12/14 13:39:49;;;;;;;1.47;1.37;;;;;;;;;;5093090;28;20271;-93
2021/12/14 13:42:24;;;;;;;0.83;0.83;;;;;;;;;;5094400;28;20199;-94
2021/12/14 13:44:53;;;;;;;1.33;0.93;;;;;;;;;;5092637;28;20220;-94
2021/12/14 13:47:25;;;;;;;0.83;0.83;;;;;;;;;;5092503;28;20192;-94
2021/12/14 13:49:53;;;;;;;0.80;0.80;;;;;;;;;;5092501;28;20232;-94
2021/12/14 13:52:21;;;;;;;0.87;0.87;;;;;;;;;;5092624;28;20192;-94
2021/12/14 13:55:23;;;;;;;0.80;0.80;;;;;;;;;;5092403;28;20306;-94
2021/12/14 13:57:55;;;;;;;1.37;1.10;;;;;;;;;;5094204;28;20275;-94
2021/12/14 14:00:26;;;;;;;1.23;1.13;;;;;;;;;;5095986;28;20195;-94
2021/12/14 14:02:55;;;;;;;1.00;1.00;;;;;;;;;;5096209;28;20196;-94
2021/12/14 14:05:23;;;;;;;1.00;1.00;;;;;;;;;;5096214;28;20200;-95
2021/12/14 14:07:54;;;;;;;0.93;0.93;;;;;;;;;;5096243;28;20228;-94
2021/12/14 14:10:21;;;;;;;1.00;1.00;;;;;;;;;;5095931;28;20189;-95
2021/12/14 14:12:52;;;;;;;1.30;1.20;;;;;;;;;;5096013;28;20192;-94
2021/12/14 14:15:24;;;;;;;1.27;1.17;;;;;;;;;;5095972;28;20246;-93
2021/12/14 14:17:57;;;;;;;1.23;1.13;;;;;;;;;;5096045;28;20215;-94
2021/12/14 14:20:30;;;;;;;1.50;1.40;;;;;;;;;;5096154;28;20263;-93
2021/12/14 14:23:26;;;;;;;1.00;1.00;;;;;;;;;;5095631;28;20188;-94
2021/12/14 14:25:59;;;;;;;1.03;1.03;;;;;;;;;;5095418;28;20272;-93
2021/12/14 14:28:43;;;;;;;1.10;0.97;;;;;;;;;;5095443;28;20192;-94
2021/12/14 14:31:14;;;;;;;1.50;1.40;;;;;;;;;;5094423;28;20527;-95
2021/12/14 14:33:50;;;;;;;1.40;1.30;;;;;;;;;;5095300;28;20203;-94
2021/12/14 14:36:28;;;;;;;2.03;1.70;;;;;;;;;;5095689;28;20189;-94
2021/12/14 14:39:05;;;;;;;2.07;1.73;;;;;;;;;;5095466;28;20183;-94
2021/12/14 14:41:45;;;;;;;2.13;1.93;;;;;;;;;;5095430;28;20188;-94
2021/12/14 14:44:16;;;;;;;1.97;1.77;;;;;;;;;;5095778;28;20716;-94
2021/12/14 14:46:53;;;;;;;2.30;2.13;;;;;;;;;;5095130;28;20184;-94
2021/12/14 14:49:24;;;;;;;3.17;2.87;;;;;;;;;;5094846;28;20318;-94
2021/12/14 14:51:54;;;;;;;2.13;1.97;;;;;;;;;;5095206;28;20564;-94
2021/12/14 14:54:42;;;;;;;2.57;2.37;;;;;;;;;;5095029;28;20220;-94
2021/12/14 14:57:33;;;;;;;3.23;2.97;;;;;;;;;;5095223;28;20557;-94
2021/12/14 15:00:18;;;;;;;2.80;2.60;;;;;;;;;;5094888;28;20198;-95
2021/12/14 15:02:51;;;;;;;3.03;2.73;;;;;;;;;;5095281;28;20703;-94
2021/12/14 15:05:31;;;;;;;2.17;1.97;;;;;;;;;;5095162;28;20181;-94
2021/12/14 15:08:03;;;;;;;1.73;1.63;;;;;;;;;;5094968;28;20223;-94
2021/12/14 15:10:34;;;;;;;1.73;1.63;;;;;;;;;;5095498;28;20196;-94
2021/12/14 15:13:22;;;;;;;1.87;1.33;;;;;;;;;;5095438;28;20656;-94
2021/12/14 15:16:02;;;;;;;1.77;1.67;;;;;;;;;;5094709;28;20242;-93
2021/12/14 15:18:58;;;;;;;1.33;1.23;;;;;;;;;;5094568;28;20279;-94
2021/12/14 15:21:37;;;;;;;1.03;1.00;;;;;;;;;;5094511;28;20188;-94
2021/12/14 15:24:30;;;;;;;1.20;1.17;;;;;;;;;;5094659;28;20572;-94
2021/12/14 15:27:17;;;;;;;1.40;1.30;;;;;;;;;;5094497;28;20195;-94
2021/12/14 15:29:46;;;;;;;1.67;1.57;;;;;;;;;;5093769;28;20643;-93
2021/12/14 15:32:22;;;;;;;1.30;1.20;;;;;;;;;;5094478;28;20219;-94
2021/12/14 15:34:54;;;;;;;1.37;1.30;;;;;;;;;;5094325;28;20303;-94
2021/12/14 15:37:40;;;;;;;1.50;1.40;;;;;;;;;;5094634;28;20682;-94
2021/12/14 15:40:48;;;;;;;1.63;1.53;;;;;;;;;;5092974;28;20197;-94